createdAt,value
2018-04-06T00:04:51.955Z,3.00
2018-04-06T00:09:52.973Z,2.90
2018-04-06T00:14:53.970Z,2.80
2018-04-06T00:19:54.947Z,2.90
2018-04-06T00:24:55.935Z,2.80
2018-04-06T00:29:57.671Z,2.70
2018-04-06T00:34:58.668Z,2.60
2018-04-06T00:40:00.398Z,2.70
2018-04-06T00:45:01.413Z,2.60
2018-04-06T00:50:02.399Z,2.70
2018-04-06T00:55:03.378Z,2.70
2018-04-06T01:00:04.377Z,2.70
2018-04-06T01:05:06.096Z,2.60
2018-04-06T01:10:07.100Z,2.50
2018-04-06T01:15:08.807Z,2.70
2018-04-06T01:20:09.792Z,2.60
2018-04-06T01:25:10.824Z,2.60
2018-04-06T01:30:11.808Z,2.60
2018-04-06T01:35:12.809Z,2.60
2018-04-06T01:40:14.531Z,2.40
2018-04-06T01:45:15.534Z,2.30
2018-04-06T01:50:17.259Z,2.10
2018-04-06T01:55:18.240Z,2.00
2018-04-06T02:00:19.242Z,1.90
2018-04-06T02:05:20.217Z,1.80
2018-04-06T02:10:21.223Z,1.80
2018-04-06T02:15:22.222Z,1.80
2018-04-06T02:20:23.227Z,1.90
2018-04-06T02:25:24.204Z,1.70
2018-04-06T02:30:25.936Z,1.50
2018-04-06T02:35:26.911Z,1.40
2018-04-06T02:40:27.915Z,1.40
2018-04-06T02:45:28.900Z,1.20
2018-04-06T02:50:29.875Z,1.30
2018-04-06T02:55:30.843Z,1.40
2018-04-06T03:00:31.846Z,1.30
2018-04-06T03:05:32.815Z,1.10
2018-04-06T03:10:33.794Z,1.20
2018-04-06T03:15:34.801Z,1.00
2018-04-06T03:20:36.504Z,1.00
2018-04-06T03:25:37.500Z,0.90
2018-04-06T03:30:38.483Z,1.10
2018-04-06T03:35:40.204Z,0.80
2018-04-06T03:40:41.197Z,0.70
2018-04-06T03:45:42.164Z,1.00
2018-04-06T03:50:43.926Z,0.70
2018-04-06T03:55:44.911Z,0.60
2018-04-06T04:00:46.658Z,0.60
2018-04-06T04:05:47.639Z,0.60
2018-04-06T04:10:49.387Z,0.60
2018-04-06T04:15:50.375Z,0.60
2018-04-06T04:20:52.140Z,0.60
2018-04-06T04:25:53.874Z,0.50
2018-04-06T04:30:54.861Z,0.40
2018-04-06T04:35:55.851Z,0.60
2018-04-06T04:40:56.841Z,0.70
2018-04-06T04:45:57.835Z,0.80
2018-04-06T04:50:58.845Z,0.70
2018-04-06T04:55:59.835Z,0.90
2018-04-06T05:01:00.823Z,1.00
2018-04-06T05:06:02.564Z,1.20
2018-04-06T05:11:03.547Z,1.10
2018-04-06T05:16:05.296Z,1.80
2018-04-06T05:21:06.274Z,1.70
2018-04-06T05:26:08.031Z,2.20
2018-04-06T05:31:09.039Z,2.20
2018-04-06T05:36:10.032Z,2.30
2018-04-06T05:41:11.016Z,2.50
2018-04-06T05:46:12.008Z,2.70
2018-04-06T05:51:12.987Z,2.70
2018-04-06T05:56:14.019Z,3.00
2018-04-06T06:01:14.996Z,3.40
2018-04-06T06:06:15.975Z,3.90
2018-04-06T06:11:16.997Z,4.10
2018-04-06T06:16:17.987Z,4.20
2018-04-06T06:21:18.982Z,4.60
2018-04-06T06:26:20.703Z,5.30
2018-04-06T06:31:21.705Z,5.20
2018-04-06T06:36:22.696Z,6.20
2018-04-06T06:41:23.687Z,6.70
2018-04-06T06:46:24.697Z,7.10
2018-04-06T06:51:25.755Z,7.30
2018-04-06T06:56:27.513Z,7.90
2018-04-06T07:01:29.247Z,8.00
2018-04-06T07:06:30.240Z,7.90
2018-04-06T07:11:31.239Z,7.70
2018-04-06T07:16:32.235Z,8.00
2018-04-06T07:21:33.228Z,8.00
2018-04-06T07:26:34.965Z,8.10
2018-04-06T07:31:35.962Z,8.00
2018-04-06T07:36:37.708Z,9.40
2018-04-06T07:41:38.736Z,9.40
2018-04-06T07:46:39.734Z,9.20
2018-04-06T07:51:41.495Z,9.40
2018-04-06T07:56:42.482Z,9.40
2018-04-06T08:01:44.215Z,10.00
2018-04-06T08:06:45.214Z,10.00
2018-04-06T08:11:46.968Z,10.10
2018-04-06T08:16:47.983Z,10.00
2018-04-06T08:21:49.807Z,9.90
2018-04-06T08:26:51.579Z,10.60
2018-04-06T08:31:53.330Z,10.80
2018-04-06T08:36:54.320Z,10.80
2018-04-06T08:41:55.317Z,11.40
2018-04-06T08:46:56.311Z,11.30
2018-04-06T08:51:57.312Z,12.20
2018-04-06T08:56:59.076Z,13.40
2018-04-06T09:02:00.811Z,12.90
2018-04-06T09:07:01.803Z,12.80
2018-04-06T09:12:03.543Z,13.10
2018-04-06T09:17:04.545Z,13.00
2018-04-06T09:22:06.289Z,13.50
2018-04-06T09:27:07.280Z,13.40
2018-04-06T09:32:09.018Z,13.70
2018-04-06T09:37:10.007Z,13.60
2018-04-06T09:42:11.749Z,15.20
2018-04-06T09:47:12.747Z,15.10
2018-04-06T09:52:14.499Z,16.90
2018-04-06T09:57:15.490Z,16.80
2018-04-06T10:02:16.552Z,15.30
2018-04-06T10:07:17.567Z,19.10
2018-04-06T10:12:18.570Z,14.60
2018-04-06T10:17:19.592Z,14.00
2018-04-06T10:22:21.331Z,13.20
2018-04-06T10:27:22.323Z,13.10
2018-04-06T10:32:23.304Z,13.70
2018-04-06T10:37:24.294Z,13.50
2018-04-06T10:42:25.286Z,13.40
2018-04-06T10:47:26.280Z,14.00
2018-04-06T10:52:27.269Z,13.80
2018-04-06T10:57:28.251Z,14.20
2018-04-06T11:02:29.252Z,13.10
2018-04-06T11:07:30.271Z,13.60
2018-04-06T11:12:31.259Z,13.70
2018-04-06T11:17:36.268Z,13.90
2018-04-06T11:22:39.371Z,13.90
2018-04-06T11:27:40.359Z,13.80
2018-04-06T11:32:42.103Z,13.80
2018-04-06T11:37:43.094Z,13.80
2018-04-06T11:42:45.060Z,13.70
2018-04-06T11:47:46.077Z,13.70
2018-04-06T11:52:47.083Z,14.00
2018-04-06T11:57:48.839Z,14.20
2018-04-06T12:02:49.848Z,14.10
2018-04-06T12:07:50.842Z,14.20
2018-04-06T12:12:51.836Z,14.10
2018-04-06T12:17:53.575Z,14.10
2018-04-06T12:22:54.562Z,14.00
2018-04-06T12:27:55.556Z,14.10
2018-04-06T12:38:25.334Z,14.40
2018-04-06T12:43:26.322Z,14.40
2018-04-06T12:48:27.302Z,14.70
2018-04-06T12:53:28.283Z,14.70
2018-04-06T12:58:29.260Z,14.60
2018-04-06T13:03:30.300Z,14.80
2018-04-06T13:08:31.292Z,14.90
2018-04-06T13:13:32.280Z,15.30
2018-04-06T13:18:33.268Z,15.00
2018-04-06T13:23:34.332Z,14.80
2018-04-06T13:28:35.304Z,15.10
2018-04-06T13:33:36.295Z,15.10
2018-04-06T13:38:37.304Z,15.10
2018-04-06T13:43:38.339Z,15.30
2018-04-06T13:48:40.098Z,15.30
2018-04-06T13:53:41.115Z,15.20
2018-04-06T13:58:42.116Z,15.50
2018-04-06T14:03:43.095Z,15.40
2018-04-06T14:08:44.839Z,15.30
2018-04-06T14:13:45.846Z,15.20
2018-04-06T14:18:46.863Z,15.30
2018-04-06T14:23:47.842Z,15.70
2018-04-06T14:28:49.588Z,15.50
2018-04-06T14:33:50.607Z,15.50
2018-04-06T14:38:51.678Z,15.60
2018-04-06T14:43:52.693Z,15.70
2018-04-06T14:48:53.732Z,15.90
2018-04-06T14:53:54.728Z,15.80
2018-04-06T14:58:55.783Z,15.90
2018-04-06T15:03:56.792Z,15.80
2018-04-06T15:08:57.842Z,15.90
2018-04-06T15:13:58.904Z,16.00
2018-04-06T15:19:06.804Z,16.00
2018-04-06T15:24:07.812Z,16.10
2018-04-06T15:29:09.539Z,15.90
2018-04-06T15:34:10.536Z,15.90
2018-04-06T15:39:12.280Z,15.70
2018-04-06T15:44:13.289Z,15.70
2018-04-06T15:49:15.028Z,15.70
2018-04-06T15:56:22.396Z,15.70
2018-04-06T16:01:23.523Z,15.70
2018-04-06T16:06:24.508Z,15.80
2018-04-06T16:11:25.521Z,15.80
2018-04-06T16:16:26.524Z,16.00
2018-04-06T16:21:27.514Z,15.80
2018-04-06T16:26:28.505Z,15.70
2018-04-06T16:31:29.595Z,15.60
2018-04-06T16:36:30.595Z,15.60
2018-04-06T16:41:31.598Z,15.50
2018-04-06T16:46:33.335Z,15.40
2018-04-06T16:51:34.333Z,15.40
2018-04-06T16:56:36.060Z,15.30
2018-04-06T17:01:37.043Z,15.20
2018-04-06T17:06:38.033Z,15.20
2018-04-06T17:11:39.004Z,15.20
2018-04-06T17:16:39.971Z,15.10
2018-04-06T17:21:40.951Z,15.10
2018-04-06T17:26:41.944Z,15.00
2018-04-06T17:31:43.736Z,14.90
2018-04-06T17:36:44.745Z,14.80
2018-04-06T17:41:45.724Z,14.80
2018-04-06T17:46:46.712Z,14.60
2018-04-06T17:51:47.752Z,14.60
2018-04-06T17:56:48.767Z,14.50
2018-04-06T18:01:49.797Z,14.30
2018-04-06T18:06:50.784Z,14.20
2018-04-06T18:11:51.763Z,14.10
2018-04-06T18:16:52.760Z,14.10
2018-04-06T18:21:53.803Z,13.90
2018-04-06T18:26:55.571Z,13.70
2018-04-06T18:31:57.310Z,13.60
2018-04-06T18:36:58.343Z,13.50
2018-04-06T18:42:00.049Z,13.40
2018-04-06T18:47:01.036Z,13.30
2018-04-06T18:52:02.803Z,13.20
2018-04-06T18:57:03.804Z,13.10
2018-04-06T19:02:04.810Z,13.00
2018-04-06T19:07:05.832Z,12.90
2018-04-06T19:12:06.836Z,12.80
2018-04-06T19:17:08.652Z,12.60
2018-04-06T19:22:09.684Z,12.50
2018-04-06T19:27:11.441Z,12.50
2018-04-06T19:32:13.207Z,12.40
2018-04-06T19:37:14.201Z,12.30
2018-04-06T19:42:15.210Z,12.30
2018-04-06T19:47:16.374Z,12.50
2018-04-06T19:52:17.406Z,12.40
2018-04-06T19:57:18.401Z,12.50
2018-04-06T20:02:19.385Z,12.50
2018-04-06T20:07:20.379Z,12.60
2018-04-06T20:12:21.377Z,12.70
2018-04-06T20:17:22.392Z,12.80
2018-04-06T20:22:23.386Z,12.80
2018-04-06T20:27:24.760Z,12.70
2018-04-06T20:32:26.533Z,12.70
2018-04-06T20:37:27.591Z,12.60
2018-04-06T20:42:28.647Z,12.80
2018-04-06T20:47:29.739Z,12.70
2018-04-06T20:52:30.893Z,12.70
2018-04-06T20:57:32.045Z,12.70
2018-04-06T21:02:33.837Z,12.70
2018-04-06T21:07:34.843Z,12.60
2018-04-06T21:12:35.834Z,12.60
2018-04-06T21:17:37.565Z,12.70
2018-04-06T21:22:38.573Z,12.60
2018-04-06T21:27:39.582Z,12.50
2018-04-06T21:32:40.591Z,12.60
2018-04-06T21:37:42.311Z,12.40
2018-04-06T21:42:43.307Z,12.40
2018-04-06T21:47:45.043Z,12.30
2018-04-06T21:52:46.035Z,12.30
2018-04-06T21:57:47.031Z,12.30
2018-04-06T22:02:48.055Z,12.30
2018-04-06T22:07:49.856Z,12.30
2018-04-06T22:12:58.035Z,12.20
2018-04-06T22:17:59.027Z,12.20
2018-04-06T22:23:00.780Z,12.10
2018-04-06T22:28:01.779Z,12.10
2018-04-06T22:33:02.772Z,12.10
2018-04-06T22:38:03.763Z,12.00
2018-04-06T22:43:05.499Z,12.00
2018-04-06T22:48:06.474Z,11.90
2018-04-06T22:53:07.452Z,12.00
2018-04-06T22:58:09.275Z,11.60
2018-04-06T23:03:10.263Z,11.60
2018-04-06T23:08:11.245Z,11.50
2018-04-06T23:13:12.967Z,11.10
2018-04-06T23:18:13.951Z,11.10
2018-04-06T23:23:14.931Z,11.10
2018-04-06T23:28:16.655Z,10.80
2018-04-06T23:33:17.682Z,10.70
2018-04-06T23:38:18.688Z,11.00
2018-04-06T23:43:19.675Z,11.00
2018-04-06T23:48:21.404Z,11.10
2018-04-06T23:53:22.399Z,11.00
2018-04-06T23:58:23.390Z,11.10
